Time;durP1;ratioP1;P1;durP2;ratioP2;P2;SDS_P1;SDS_P2;PMS_P1;PMS_P2;Temp;Humidity;BMP_temperature;BMP_pressure;BME280_temperature;BME280_humidity;BME280_pressure;Samples;Min_cycle;Max_cycle;Signal;HPM_P1;HPM_P2
2024/01/20 00:00:54;;;;;;;;;;;;;;;0.11;100.00;102556.13;5091473;28;20218;-74
2024/01/20 00:03:19;;;;;;;;;;;;;;;0.14;100.00;102561.38;5092674;28;20034;-74
2024/01/20 00:05:44;;;;;;;;;;;;;;;0.07;100.00;102560.31;5092735;28;20176;-74
2024/01/20 00:08:09;;;;;;;;;;;;;;;0.04;100.00;102565.41;5092472;28;19920;-74
2024/01/20 00:10:35;;;;;;;;;;;;;;;0.04;100.00;102556.78;5091950;28;19919;-74
2024/01/20 00:13:00;;;;;;;;;;;;;;;0.05;100.00;102564.56;5093326;28;19920;-74
2024/01/20 00:15:25;;;;;;;;;;;;;;;-0.02;100.00;102557.47;5093507;28;19927;-74
2024/01/20 00:17:50;;;;;;;;;;;;;;;-0.05;100.00;102563.41;5091626;28;19943;-73
2024/01/20 00:20:16;;;;;;;;;;;;;;;-0.02;100.00;102562.63;5090787;28;19959;-74
2024/01/20 00:22:42;;;;;;;;;;;;;;;0.02;100.00;102566.16;5098406;28;20036;-74
2024/01/20 00:25:08;;;;;;;;;;;;;;;-0.03;100.00;102568.63;5094163;28;19919;-74
2024/01/20 00:27:34;;;;;;;;;;;;;;;0.02;100.00;102576.47;5093813;28;19920;-74
2024/01/20 00:29:59;;;;;;;;;;;;;;;-0.04;100.00;102575.47;5094700;28;20110;-74
2024/01/20 00:32:24;;;;;;;;;;;;;;;-0.07;100.00;102571.94;5094160;28;19977;-73
2024/01/20 00:34:50;;;;;;;;;;;;;;;-0.15;100.00;102576.81;5094950;28;19955;-74
2024/01/20 00:37:15;;;;;;;;;;;;;;;-0.15;100.00;102575.94;5095235;28;19920;-74
2024/01/20 00:39:40;;;;;;;;;;;;;;;-0.23;100.00;102581.72;5095598;28;20228;-74
2024/01/20 00:42:05;;;;;;;;;;;;;;;-0.24;100.00;102581.69;5094666;28;19931;-73
2024/01/20 00:44:30;;;;;;;;;;;;;;;-0.23;100.00;102576.59;5095655;28;19915;-73
2024/01/20 00:46:56;;;;;;;;;;;;;;;-0.22;100.00;102574.88;5094151;28;19920;-73
2024/01/20 00:49:21;;;;;;;;;;;;;;;-0.25;100.00;102579.94;5095335;28;19927;-74
2024/01/20 00:51:46;;;;;;;;;;;;;;;-0.21;100.00;102572.34;5094457;28;19927;-73
2024/01/20 00:54:12;;;;;;;;;;;;;;;-0.20;100.00;102574.13;5095375;28;19958;-74
2024/01/20 00:56:37;;;;;;;;;;;;;;;-0.28;100.00;102579.84;5095394;28;20221;-73
2024/01/20 00:59:02;;;;;;;;;;;;;;;-0.24;100.00;102580.00;5094294;28;20235;-73
2024/01/20 01:01:28;;;;;;;;;;;;;;;-0.25;100.00;102574.78;5094441;28;19933;-74
2024/01/20 01:03:53;;;;;;;;;;;;;;;-0.29;100.00;102575.50;5093602;28;19920;-73
2024/01/20 01:06:18;;;;;;;;;;;;;;;-0.30;100.00;102578.91;5091270;28;19953;-74
2024/01/20 01:08:43;;;;;;;;;;;;;;;-0.29;100.00;102581.56;5094029;28;20230;-74
2024/01/20 01:11:09;;;;;;;;;;;;;;;-0.31;100.00;102582.31;5095164;28;19920;-74
2024/01/20 01:13:36;;;;;;;;;;;;;;;-0.40;100.00;102583.78;5094939;28;19920;-73
2024/01/20 01:16:02;;;;;;;;;;;;;;;-0.39;100.00;102582.94;5093965;28;20290;-73
2024/01/20 01:18:27;;;;;;;;;;;;;;;-0.35;100.00;102586.47;5091983;28;19958;-73
2024/01/20 01:20:52;;;;;;;;;;;;;;;-0.41;100.00;102596.59;5094033;28;19987;-73
2024/01/20 01:23:18;;;;;;;;;;;;;;;-0.37;100.00;102600.16;5094094;28;19928;-73
2024/01/20 01:25:43;;;;;;;;;;;;;;;-0.34;100.00;102588.25;5094511;28;19946;-73
2024/01/20 01:28:08;;;;;;;;;;;;;;;-0.30;100.00;102590.09;5094318;28;20261;-74
2024/01/20 01:30:33;;;;;;;;;;;;;;;-0.36;100.00;102602.78;5094804;28;19943;-73
2024/01/20 01:32:59;;;;;;;;;;;;;;;-0.40;100.00;102595.75;5090503;28;20295;-74
2024/01/20 01:35:24;;;;;;;;;;;;;;;-0.44;100.00;102587.09;5094507;28;20253;-73
2024/01/20 01:37:49;;;;;;;;;;;;;;;-0.46;100.00;102591.28;5092876;28;19916;-73
2024/01/20 01:40:14;;;;;;;;;;;;;;;-0.44;100.00;102589.66;5094344;28;19915;-73
2024/01/20 01:42:39;;;;;;;;;;;;;;;-0.45;100.00;102593.03;5096643;28;19922;-73
2024/01/20 01:45:05;;;;;;;;;;;;;;;-0.59;100.00;102602.88;5091813;28;19955;-73
2024/01/20 01:47:31;;;;;;;;;;;;;;;-0.61;100.00;102599.38;5091857;28;19924;-73
2024/01/20 01:49:56;;;;;;;;;;;;;;;-0.56;100.00;102598.63;5093314;28;19923;-73
2024/01/20 01:52:22;;;;;;;;;;;;;;;-0.61;100.00;102583.94;5094458;28;19994;-73
2024/01/20 01:54:48;;;;;;;;;;;;;;;-0.69;100.00;102585.38;5092725;28;19920;-73
2024/01/20 01:57:13;;;;;;;;;;;;;;;-0.63;100.00;102585.59;5094124;28;19985;-73
2024/01/20 01:59:40;;;;;;;;;;;;;;;-0.64;100.00;102595.81;5092539;28;20142;-73
2024/01/20 02:02:05;;;;;;;;;;;;;;;-0.63;100.00;102595.88;5093114;28;19931;-73
2024/01/20 02:04:31;;;;;;;;;;;;;;;-0.66;100.00;102590.63;5093521;28;19920;-73
2024/01/20 02:06:56;;;;;;;;;;;;;;;-0.70;100.00;102593.06;5090536;28;19927;-73
2024/01/20 02:09:22;;;;;;;;;;;;;;;-0.74;100.00;102598.91;5091995;28;20223;-73
2024/01/20 02:11:48;;;;;;;;;;;;;;;-0.73;100.00;102596.38;5094040;28;20169;-73
2024/01/20 02:14:13;;;;;;;;;;;;;;;-0.79;100.00;102594.47;5093139;28;19957;-73
2024/01/20 02:16:38;;;;;;;;;;;;;;;-0.71;100.00;102607.63;5094149;28;20020;-73
2024/01/20 02:19:04;;;;;;;;;;;;;;;-0.72;100.00;102603.28;5090738;28;19920;-73
2024/01/20 02:21:29;;;;;;;;;;;;;;;-0.73;100.00;102600.66;5092161;28;20121;-73
2024/01/20 02:23:56;;;;;;;;;;;;;;;-0.79;100.00;102604.75;5092552;28;19916;-73
2024/01/20 02:26:21;;;;;;;;;;;;;;;-0.81;100.00;102606.41;5092143;28;20173;-73
2024/01/20 02:28:48;;;;;;;;;;;;;;;-0.71;100.00;102611.88;5093664;28;19944;-73
2024/01/20 02:31:13;;;;;;;;;;;;;;;-0.75;100.00;102610.03;5092526;28;20457;-73
2024/01/20 02:33:38;;;;;;;;;;;;;;;-0.74;100.00;102620.38;5093707;28;19920;-73
2024/01/20 02:36:03;;;;;;;;;;;;;;;-0.72;100.00;102618.72;5092212;28;19982;-73
2024/01/20 02:38:29;;;;;;;;;;;;;;;-0.67;100.00;102626.63;5093064;28;20187;-73
2024/01/20 02:40:54;;;;;;;;;;;;;;;-0.77;100.00;102622.81;5090582;28;20230;-73
2024/01/20 02:43:19;;;;;;;;;;;;;;;-0.68;100.00;102612.84;5093318;28;20127;-73
2024/01/20 02:45:44;;;;;;;;;;;;;;;-0.64;100.00;102609.59;5092451;28;19997;-73
2024/01/20 02:48:10;;;;;;;;;;;;;;;-0.70;100.00;102611.94;5093294;28;19971;-73
2024/01/20 02:50:35;;;;;;;;;;;;;;;-0.68;100.00;102622.28;5089728;28;20117;-73
2024/01/20 02:53:00;;;;;;;;;;;;;;;-0.66;100.00;102624.06;5092594;28;19920;-73
2024/01/20 02:55:26;;;;;;;;;;;;;;;-0.65;100.00;102619.81;5092313;28;19920;-73
2024/01/20 02:57:51;;;;;;;;;;;;;;;-0.65;100.00;102619.81;5092585;28;19926;-73
2024/01/20 03:00:16;;;;;;;;;;;;;;;-0.80;100.00;102618.47;5092496;28;20306;-73
2024/01/20 03:02:41;;;;;;;;;;;;;;;-0.79;100.00;102615.06;5093095;28;19991;-73
2024/01/20 03:05:07;;;;;;;;;;;;;;;-0.79;100.00;102616.75;5092545;28;20336;-73
2024/01/20 03:07:32;;;;;;;;;;;;;;;-0.88;100.00;102622.44;5090117;28;20026;-73
2024/01/20 03:09:57;;;;;;;;;;;;;;;-0.84;100.00;102621.72;5092310;28;19938;-73
2024/01/20 03:12:23;;;;;;;;;;;;;;;-0.84;100.00;102618.28;5091972;28;20183;-73
2024/01/20 03:14:48;;;;;;;;;;;;;;;-0.87;100.00;102621.66;5088529;28;20227;-73
2024/01/20 03:17:13;;;;;;;;;;;;;;;-0.79;100.00;102614.19;5093405;28;19920;-73
2024/01/20 03:19:38;;;;;;;;;;;;;;;-0.76;100.00;102619.44;5093175;28;20543;-72
2024/01/20 03:22:04;;;;;;;;;;;;;;;-0.75;100.00;102615.16;5088952;28;19931;-72
2024/01/20 03:24:29;;;;;;;;;;;;;;;-0.84;100.00;102621.72;5092314;28;20159;-72
2024/01/20 03:26:55;;;;;;;;;;;;;;;-0.90;100.00;102620.66;5091339;28;20149;-72
2024/01/20 03:29:21;;;;;;;;;;;;;;;-0.84;100.00;102620.88;5092889;28;19924;-72
2024/01/20 03:31:46;;;;;;;;;;;;;;;-0.88;100.00;102627.59;5089016;28;20217;-73
2024/01/20 03:34:11;;;;;;;;;;;;;;;-0.84;100.00;102621.72;5092863;28;20270;-73
2024/01/20 03:36:36;;;;;;;;;;;;;;;-0.80;100.00;102618.47;5091787;28;19951;-72
2024/01/20 03:39:02;;;;;;;;;;;;;;;-0.80;100.00;102620.13;5091219;28;19920;-72
2024/01/20 03:41:27;;;;;;;;;;;;;;;-0.85;100.00;102634.56;5092575;28;19923;-72
2024/01/20 03:43:52;;;;;;;;;;;;;;;-0.87;100.00;102631.06;5092104;28;19924;-72
2024/01/20 03:46:18;;;;;;;;;;;;;;;-0.84;100.00;102626.88;5092721;28;19958;-72
2024/01/20 03:48:43;;;;;;;;;;;;;;;-0.88;100.00;102624.16;5092110;28;19920;-72
2024/01/20 03:51:09;;;;;;;;;;;;;;;-0.83;100.00;102632.91;5092104;28;19916;-72
2024/01/20 03:53:34;;;;;;;;;;;;;;;-0.86;100.00;102636.25;5089263;28;19947;-72
2024/01/20 03:56:00;;;;;;;;;;;;;;;-0.87;100.00;102636.22;5092034;28;19920;-73
2024/01/20 03:58:25;;;;;;;;;;;;;;;-0.85;100.00;102640.56;5092689;28;19977;-71
2024/01/20 04:00:51;;;;;;;;;;;;;;;-0.95;100.00;102641.06;5091070;28;20204;-71
2024/01/20 04:03:16;;;;;;;;;;;;;;;-0.95;100.00;102645.34;5096637;28;19923;-71
2024/01/20 04:05:41;;;;;;;;;;;;;;;-0.93;100.00;102654.84;5090671;28;20312;-71
2024/01/20 04:08:07;;;;;;;;;;;;;;;-0.85;100.00;102642.28;5091604;28;20053;-71
2024/01/20 04:10:32;;;;;;;;;;;;;;;-0.88;100.00;102635.31;5096494;28;20833;-71
2024/01/20 04:12:57;;;;;;;;;;;;;;;-0.86;100.00;102641.38;5093764;28;19920;-71
2024/01/20 04:15:22;;;;;;;;;;;;;;;-0.88;100.00;102645.59;5097113;28;19919;-71
2024/01/20 04:17:48;;;;;;;;;;;;;;;-0.84;100.00;102642.31;5094870;28;20168;-71
2024/01/20 04:20:13;;;;;;;;;;;;;;;-0.84;100.00;102634.59;5096795;28;19908;-71
2024/01/20 04:22:38;;;;;;;;;;;;;;;-0.89;100.00;102637.81;5097452;28;19954;-71
2024/01/20 04:25:03;;;;;;;;;;;;;;;-0.90;100.00;102643.81;5096406;28;19927;-71
2024/01/20 04:27:29;;;;;;;;;;;;;;;-0.91;100.00;102635.22;5096423;28;19920;-71
2024/01/20 04:29:54;;;;;;;;;;;;;;;-0.86;100.00;102637.94;5095065;28;19982;-71
2024/01/20 04:32:19;;;;;;;;;;;;;;;-0.88;100.00;102637.88;5093661;28;20089;-71
2024/01/20 04:34:44;;;;;;;;;;;;;;;-0.86;100.00;102635.38;5095130;28;19919;-71
2024/01/20 04:37:10;;;;;;;;;;;;;;;-0.89;100.00;102638.72;5096456;28;19985;-71
2024/01/20 04:39:35;;;;;;;;;;;;;;;-0.88;100.00;102637.88;5096269;28;20145;-71
2024/01/20 04:42:00;;;;;;;;;;;;;;;-0.85;100.00;102638.00;5097955;28;19942;-71
2024/01/20 04:44:25;;;;;;;;;;;;;;;-0.91;100.00;102642.03;5092214;28;19924;-71
2024/01/20 04:46:50;;;;;;;;;;;;;;;-0.95;100.00;102641.06;5096818;28;20351;-71
2024/01/20 04:49:16;;;;;;;;;;;;;;;-0.89;100.00;102638.72;5096282;28;19920;-71
2024/01/20 04:51:41;;;;;;;;;;;;;;;-0.87;100.00;102643.94;5096652;28;20286;-71
2024/01/20 04:54:06;;;;;;;;;;;;;;;-0.85;100.00;102638.00;5096017;28;19924;-71
2024/01/20 04:56:31;;;;;;;;;;;;;;;-0.93;100.00;102641.97;5096560;28;19975;-71
2024/01/20 04:58:57;;;;;;;;;;;;;;;-0.94;100.00;102640.25;5093520;28;19958;-71
2024/01/20 05:01:22;;;;;;;;;;;;;;;-0.92;100.00;102654.03;5096486;28;19931;-71
2024/01/20 05:03:47;;;;;;;;;;;;;;;-0.90;100.00;102662.69;5095440;28;19994;-71
2024/01/20 05:06:13;;;;;;;;;;;;;;;-0.94;100.00;102660.84;5096240;28;20139;-71
2024/01/20 05:08:38;;;;;;;;;;;;;;;-0.89;100.00;102660.97;5096935;28;20203;-71
2024/01/20 05:11:03;;;;;;;;;;;;;;;-0.93;100.00;102666.84;5095365;28;19931;-71
2024/01/20 05:13:30;;;;;;;;;;;;;;;-0.99;100.00;102665.78;5094831;28;19918;-71
2024/01/20 05:15:55;;;;;;;;;;;;;;;-1.00;100.00;102661.50;5096021;28;19946;-71
2024/01/20 05:18:20;;;;;;;;;;;;;;;-1.01;100.00;102666.56;5095449;28;20153;-71
2024/01/20 05:20:46;;;;;;;;;;;;;;;-1.06;100.00;102656.09;5090616;28;20220;-71
2024/01/20 05:23:11;;;;;;;;;;;;;;;-0.97;100.00;102665.84;5089313;28;20166;-71
2024/01/20 05:25:37;;;;;;;;;;;;;;;-1.06;100.00;102675.81;5095433;28;19953;-71
2024/01/20 05:28:02;;;;;;;;;;;;;;;-1.07;100.00;102668.94;5097811;28;19920;-71
2024/01/20 05:30:27;;;;;;;;;;;;;;;-1.00;100.00;102676.91;5093687;28;20011;-71
2024/01/20 05:32:52;;;;;;;;;;;;;;;-1.01;100.00;102680.31;5095203;28;19943;-71
2024/01/20 05:35:18;;;;;;;;;;;;;;;-1.07;100.00;102676.66;5095295;28;19927;-71
2024/01/20 05:37:44;;;;;;;;;;;;;;;-1.09;100.00;102680.84;5093694;28;19920;-71
2024/01/20 05:40:09;;;;;;;;;;;;;;;-1.13;100.00;102684.13;5092934;28;20250;-71
2024/01/20 05:42:34;;;;;;;;;;;;;;;-1.10;100.00;102681.66;5095465;28;20142;-71
2024/01/20 05:45:00;;;;;;;;;;;;;;;-1.07;100.00;102689.50;5090624;28;19987;-71
2024/01/20 05:47:25;;;;;;;;;;;;;;;-1.11;100.00;102683.38;5092824;28;19927;-71
2024/01/20 05:49:50;;;;;;;;;;;;;;;-1.05;100.00;102687.88;5094511;28;19920;-71
2024/01/20 05:52:15;;;;;;;;;;;;;;;-1.02;100.00;102687.94;5096821;28;20238;-71
2024/01/20 05:54:41;;;;;;;;;;;;;;;-1.13;100.00;102694.41;5094664;28;20670;-71
2024/01/20 05:57:07;;;;;;;;;;;;;;;-1.15;100.00;102694.34;5092488;28;20197;-71
2024/01/20 05:59:32;;;;;;;;;;;;;;;-1.11;100.00;102696.22;5094722;28;20241;-71
2024/01/20 06:01:57;;;;;;;;;;;;;;;-1.04;100.00;102697.31;5094050;28;19931;-71
2024/01/20 06:04:23;;;;;;;;;;;;;;;-1.03;100.00;102699.94;5092845;28;19929;-71
2024/01/20 06:06:48;;;;;;;;;;;;;;;-1.07;100.00;102703.22;5094443;28;19919;-71
2024/01/20 06:09:14;;;;;;;;;;;;;;;-0.96;100.00;102701.06;5094515;28;19935;-71
2024/01/20 06:11:40;;;;;;;;;;;;;;;-0.92;100.00;102700.34;5098661;28;20134;-71
2024/01/20 06:14:05;;;;;;;;;;;;;;;-0.95;100.00;102696.78;5093486;28;20421;-71
2024/01/20 06:16:31;;;;;;;;;;;;;;;-1.06;100.00;102702.41;5094742;28;19920;-71
2024/01/20 06:18:56;;;;;;;;;;;;;;;-1.12;100.00;102703.88;5094372;28;19908;-71
2024/01/20 06:21:21;;;;;;;;;;;;;;;-1.11;100.00;102703.03;5093294;28;19962;-71
2024/01/20 06:23:48;;;;;;;;;;;;;;;-1.05;100.00;102701.59;5094908;28;19931;-71
2024/01/20 06:26:13;;;;;;;;;;;;;;;-0.99;100.00;102706.06;5092614;28;19951;-71
2024/01/20 06:28:38;;;;;;;;;;;;;;;-1.00;100.00;102717.16;5094689;28;20281;-71
2024/01/20 06:31:03;;;;;;;;;;;;;;;-1.03;100.00;102711.94;5091983;28;19927;-71
2024/01/20 06:33:28;;;;;;;;;;;;;;;-1.07;100.00;102710.94;5093312;28;20215;-71
2024/01/20 06:35:54;;;;;;;;;;;;;;;-1.07;100.00;102712.66;5088672;28;19921;-71
2024/01/20 06:38:19;;;;;;;;;;;;;;;-1.06;100.00;102704.97;5089446;28;20096;-71
2024/01/20 06:40:44;;;;;;;;;;;;;;;-1.08;100.00;102705.75;5092661;28;19988;-71
2024/01/20 06:43:09;;;;;;;;;;;;;;;-1.15;100.00;102712.34;5093313;28;20273;-71
2024/01/20 06:45:35;;;;;;;;;;;;;;;-1.17;100.00;102707.13;5094407;28;20180;-71
2024/01/20 06:48:01;;;;;;;;;;;;;;;-1.12;100.00;102720.19;5094502;28;19920;-71
2024/01/20 06:50:26;;;;;;;;;;;;;;;-1.11;100.00;102713.34;5094101;28;20210;-71
2024/01/20 06:52:51;;;;;;;;;;;;;;;-1.14;100.00;102714.09;5093623;28;19913;-71
2024/01/20 06:55:17;;;;;;;;;;;;;;;-1.18;100.00;102718.25;5092407;28;19923;-71
2024/01/20 06:57:42;;;;;;;;;;;;;;;-1.19;100.00;102728.47;5094222;28;20000;-71
2024/01/20 07:00:08;;;;;;;;;;;;;;;-1.20;100.00;102726.72;5091824;28;20142;-71
2024/01/20 07:02:33;;;;;;;;;;;;;;;-1.21;100.00;102725.84;5092175;28;19935;-71
2024/01/20 07:04:59;;;;;;;;;;;;;;;-1.21;100.00;102723.28;5091689;28;20255;-71
2024/01/20 07:07:24;;;;;;;;;;;;;;;-1.20;100.00;102729.28;5092761;28;20129;-71
2024/01/20 07:09:49;;;;;;;;;;;;;;;-1.13;100.00;102723.56;5093152;28;20100;-71
2024/01/20 07:12:14;;;;;;;;;;;;;;;-1.18;100.00;102737.97;5094408;28;19920;-71
2024/01/20 07:14:42;;;;;;;;;;;;;;;-1.12;100.00;102738.19;5092624;28;19924;-71
2024/01/20 07:17:07;;;;;;;;;;;;;;;-1.07;100.00;102733.22;5093443;28;19920;-71
2024/01/20 07:19:33;;;;;;;;;;;;;;;-1.05;100.00;102729.00;5093890;28;19951;-71
2024/01/20 07:22:01;;;;;;;;;;;;;;;-1.11;100.00;102734.81;5093475;28;19916;-71
2024/01/20 07:24:29;;;;;;;;;;;;;;;-1.20;100.00;102731.84;5092221;28;20174;-71
2024/01/20 07:26:56;;;;;;;;;;;;;;;-1.17;100.00;102739.69;5093273;28;19932;-71
2024/01/20 07:29:22;;;;;;;;;;;;;;;-1.20;100.00;102739.56;5093617;28;19920;-71
2024/01/20 07:31:47;;;;;;;;;;;;;;;-1.14;100.00;102739.81;5094196;28;19916;-71
2024/01/20 07:34:13;;;;;;;;;;;;;;;-1.13;100.00;102726.13;5091613;28;20115;-71
2024/01/20 07:36:38;;;;;;;;;;;;;;;-1.17;100.00;102734.56;5096272;28;20123;-71
2024/01/20 07:39:04;;;;;;;;;;;;;;;-1.13;100.00;102735.53;5095943;28;20139;-71
2024/01/20 07:41:30;;;;;;;;;;;;;;;-1.14;100.00;102731.25;5097477;28;19912;-71
2024/01/20 07:43:55;;;;;;;;;;;;;;;-1.10;100.00;102723.69;5097562;28;19924;-71
2024/01/20 07:46:20;;;;;;;;;;;;;;;-1.10;100.00;102730.53;5094694;28;19920;-71
2024/01/20 07:48:45;;;;;;;;;;;;;;;-1.09;100.00;102739.97;5096084;28;19920;-71
2024/01/20 07:51:10;;;;;;;;;;;;;;;-1.08;100.00;102739.16;5097798;28;19926;-71
2024/01/20 07:53:36;;;;;;;;;;;;;;;-1.10;100.00;102741.69;5096860;28;19920;-71
2024/01/20 07:56:01;;;;;;;;;;;;;;;-1.12;100.00;102748.47;5096714;28;19957;-71
2024/01/20 07:58:26;;;;;;;;;;;;;;;-1.17;100.00;102752.53;5095483;28;20195;-71
2024/01/20 08:00:52;;;;;;;;;;;;;;;-1.16;100.00;102744.03;5096251;28;19924;-71
2024/01/20 08:03:17;;;;;;;;;;;;;;;-1.16;100.00;102744.03;5096808;28;19989;-71
2024/01/20 08:05:43;;;;;;;;;;;;;;;-1.12;100.00;102751.03;5096883;28;19928;-71
2024/01/20 08:08:08;;;;;;;;;;;;;;;-1.12;100.00;102745.91;5097530;28;19975;-71
2024/01/20 08:10:33;;;;;;;;;;;;;;;-1.16;100.00;102747.47;5097072;28;20147;-71
2024/01/20 08:12:59;;;;;;;;;;;;;;;-1.15;100.00;102753.47;5096703;28;19927;-71
2024/01/20 08:15:24;;;;;;;;;;;;;;;-1.07;100.00;102759.81;5094995;28;19924;-71
2024/01/20 08:17:49;;;;;;;;;;;;;;;-1.07;100.00;102764.09;5094657;28;19920;-71
2024/01/20 08:20:14;;;;;;;;;;;;;;;-1.10;100.00;102766.53;5097104;28;19916;-71
2024/01/20 08:22:40;;;;;;;;;;;;;;;-1.16;100.00;102768.03;5095978;28;19928;-71
2024/01/20 08:25:05;;;;;;;;;;;;;;;-1.09;100.00;102769.16;5095982;28;19920;-71
2024/01/20 08:27:30;;;;;;;;;;;;;;;-1.16;100.00;102764.59;5097098;28;19955;-71
2024/01/20 08:29:56;;;;;;;;;;;;;;;-1.13;100.00;102776.69;5094057;28;19920;-71
2024/01/20 08:32:21;;;;;;;;;;;;;;;-1.09;100.00;102775.97;5098806;28;20278;-71
2024/01/20 08:34:47;;;;;;;;;;;;;;;-1.07;100.00;102776.94;5096786;28;20306;-71
2024/01/20 08:37:12;;;;;;;;;;;;;;;-1.06;100.00;102792.41;5095692;28;20275;-71
2024/01/20 08:39:37;;;;;;;;;;;;;;;-1.06;100.00;102788.97;5095175;28;19920;-71
2024/01/20 08:42:05;;;;;;;;;;;;;;;-1.07;100.00;102792.38;5095879;28;20284;-71
2024/01/20 08:44:32;;;;;;;;;;;;;;;-1.06;100.00;102792.41;5096713;28;19916;-71
2024/01/20 08:46:57;;;;;;;;;;;;;;;-1.10;100.00;102797.38;5095338;28;19920;-71
2024/01/20 08:49:23;;;;;;;;;;;;;;;-1.05;100.00;102801.03;5096353;28;20256;-71
2024/01/20 08:51:48;;;;;;;;;;;;;;;-1.05;100.00;102795.88;5095640;28;19920;-71
2024/01/20 08:54:13;;;;;;;;;;;;;;;-0.93;100.00;102804.03;5096270;28;19916;-71
2024/01/20 08:56:38;;;;;;;;;;;;;;;-0.92;100.00;102795.50;5096899;28;19923;-71
2024/01/20 08:59:04;;;;;;;;;;;;;;;-0.87;100.00;102783.72;5095848;28;19919;-71
2024/01/20 09:01:29;;;;;;;;;;;;;;;-0.83;100.00;102785.56;5093852;28;19924;-71
2024/01/20 09:03:54;;;;;;;;;;;;;;;-0.86;100.00;102775.16;5094904;28;19924;-71
2024/01/20 09:06:19;;;;;;;;;;;;;;;-0.82;100.00;102784.78;5093207;28;19920;-71
2024/01/20 09:08:45;;;;;;;;;;;;;;;-0.73;100.00;102784.22;5095130;28;20138;-71
2024/01/20 09:11:10;;;;;;;;;;;;;;;-0.73;100.00;102788.47;5095980;28;19912;-71
2024/01/20 09:13:35;;;;;;;;;;;;;;;-0.68;100.00;102787.84;5094200;28;19920;-71
2024/01/20 09:16:00;;;;;;;;;;;;;;;-0.66;100.00;102796.47;5094367;28;19998;-71
2024/01/20 09:18:26;;;;;;;;;;;;;;;-0.65;100.00;102795.69;5096110;28;19947;-71
2024/01/20 09:20:51;;;;;;;;;;;;;;;-0.65;100.00;102793.09;5094816;28;19916;-71
2024/01/20 09:23:16;;;;;;;;;;;;;;;-0.61;100.00;102796.66;5093744;28;19998;-71
2024/01/20 09:25:41;;;;;;;;;;;;;;;-0.55;100.00;102801.16;5095761;28;20260;-71
2024/01/20 09:28:07;;;;;;;;;;;;;;;-0.54;100.00;102800.34;5093987;28;19924;-71
2024/01/20 09:30:35;;;;;;;;;;;;;;;-0.48;100.00;102806.56;5095214;28;19927;-71
2024/01/20 09:33:00;;;;;;;;;;;;;;;-0.47;100.00;102805.78;5092420;28;19920;-71
2024/01/20 09:35:25;;;;;;;;;;;;;;;-0.46;100.00;102792.06;5094219;28;19927;-71
2024/01/20 09:37:51;;;;;;;;;;;;;;;-0.35;100.00;102795.03;5093984;28;19919;-71
2024/01/20 09:40:16;;;;;;;;;;;;;;;-0.28;100.00;102796.13;5092837;28;19983;-71
2024/01/20 09:42:42;;;;;;;;;;;;;;;-0.27;100.00;102795.31;5094679;28;19959;-71
2024/01/20 09:45:07;;;;;;;;;;;;;;;-0.27;100.00;102800.47;5093139;28;19951;-70
2024/01/20 09:47:33;;;;;;;;;;;;;;;-0.26;100.00;102794.47;5093431;27;19927;-70
2024/01/20 09:49:58;;;;;;;;;;;;;;;-0.24;100.00;102800.56;5100321;28;20219;-71
2024/01/20 09:52:27;;;;;;;;;;;;;;;-0.29;100.00;102797.84;5100140;28;19928;-70
2024/01/20 09:55:07;;;;;;;;;;;;;;;-0.30;100.00;102803.78;5098195;27;20248;-71
2024/01/20 09:57:33;;;;;;;;;;;;;;;-0.29;100.00;102808.13;5106397;28;20119;-71
2024/01/20 09:59:59;;;;;;;;;;;;;;;-0.30;100.00;102808.94;5109345;28;19919;-72
2024/01/20 10:02:25;;;;;;;;;;;;;;;-0.24;100.00;102808.28;5106059;28;19929;-71
2024/01/20 10:04:51;;;;;;;;;;;;;;;-0.22;100.00;102820.41;5108636;27;20018;-72
2024/01/20 10:07:29;;;;;;;;;;;;;;;-0.17;100.00;102828.28;5109295;27;20211;-71
2024/01/20 10:09:55;;;;;;;;;;;;;;;-0.18;100.00;102834.28;5100604;28;20249;-71
2024/01/20 10:12:20;;;;;;;;;;;;;;;-0.20;100.00;102826.50;5110518;28;20109;-72
2024/01/20 10:14:45;;;;;;;;;;;;;;;-0.15;100.00;102833.50;5109667;28;19926;-71
2024/01/20 10:17:11;;;;;;;;;;;;;;;-0.10;100.00;102827.69;5087766;28;19995;-73
2024/01/20 10:19:38;;;;;;;;;;;;;;;-0.06;100.00;102826.97;5094510;28;19916;-71
2024/01/20 10:22:13;;;;;;;;;;;;;;;-0.01;100.00;102829.72;5106734;28;19924;-71
2024/01/20 10:24:47;;;;;;;;;;;;;;;0.01;100.00;102827.19;5109050;28;19928;-71
2024/01/20 10:27:19;;;;;;;;;;;;;;;0.04;100.00;102830.75;5101905;28;19919;-71
2024/01/20 10:29:45;;;;;;;;;;;;;;;0.10;100.00;102836.09;5094729;28;19907;-74
2024/01/20 10:32:10;;;;;;;;;;;;;;;0.13;100.00;102832.78;5094618;28;20124;-71
2024/01/20 10:34:35;;;;;;;;;;;;;;;0.13;100.00;102833.63;5102514;28;19915;-71
2024/01/20 10:37:05;;;;;;;;;;;;;;;0.16;100.00;102827.69;5108783;28;19926;-71
2024/01/20 10:39:31;;;;;;;;;;;;;;;0.19;100.00;102826.09;5108912;28;20170;-71
2024/01/20 10:41:58;;;;;;;;;;;;;;;0.17;100.00;102825.19;5107898;28;19950;-71
2024/01/20 10:44:27;;;;;;;;;;;;;;;0.24;100.00;102825.38;5108086;28;19922;-71
2024/01/20 10:46:53;;;;;;;;;;;;;;;0.23;100.00;102827.09;5109236;27;19950;-71
2024/01/20 10:49:20;;;;;;;;;;;;;;;0.27;100.00;102826.34;5107642;27;20041;-72
2024/01/20 10:51:46;;;;;;;;;;;;;;;0.29;100.00;102819.59;5109292;28;19912;-71
2024/01/20 10:54:12;;;;;;;;;;;;;;;0.33;100.00;102825.72;5109137;28;19942;-71
2024/01/20 10:56:38;;;;;;;;;;;;;;;0.36;100.00;102823.22;5109032;28;20131;-71
2024/01/20 10:59:10;;;;;;;;;;;;;;;0.39;100.00;102823.34;5107398;28;19920;-71
2024/01/20 11:01:36;;;;;;;;;;;;;;;0.48;100.00;102822.75;5107055;28;19922;-71
2024/01/20 11:04:01;;;;;;;;;;;;;;;0.48;100.00;102827.91;5107217;28;19924;-71
2024/01/20 11:06:27;;;;;;;;;;;;;;;0.41;100.00;102824.25;5107125;28;20170;-71
2024/01/20 11:08:53;;;;;;;;;;;;;;;0.41;100.00;102820.81;5096515;28;19928;-71
2024/01/20 11:11:19;;;;;;;;;;;;;;;0.43;100.00;102822.59;5098568;28;19927;-71
2024/01/20 11:13:45;;;;;;;;;;;;;;;0.43;100.00;102826.88;5100985;28;19920;-71
2024/01/20 11:16:17;;;;;;;;;;;;;;;0.48;100.00;102823.63;5100424;28;20127;-71
2024/01/20 11:18:42;;;;;;;;;;;;;;;0.53;100.00;102821.22;5104196;28;20099;-71
2024/01/20 11:21:13;;;;;;;;;;;;;;;0.53;100.00;102816.94;5112366;28;19916;-71
2024/01/20 11:23:38;;;;;;;;;;;;;;;0.57;100.00;102817.91;5112857;28;19999;-71
2024/01/20 11:26:09;;;;;;;;;;;;;;;0.50;100.00;102811.66;5110637;28;19915;-71
2024/01/20 11:28:35;;;;;;;;;;;;;;;0.49;100.00;102811.59;5113348;28;19977;-71
2024/01/20 11:31:01;;;;;;;;;;;;;;;0.47;100.00;102806.41;5113537;28;19920;-73
2024/01/20 11:33:26;;;;;;;;;;;;;;;0.40;100.00;102811.31;5108214;28;19926;-71
2024/01/20 11:35:52;;;;;;;;;;;;;;;0.34;100.00;102809.41;5101944;28;19958;-71
2024/01/20 11:38:17;;;;;;;;;;;;;;;0.34;100.00;102799.97;5102564;27;20426;-71
2024/01/20 11:40:43;;;;;;;;;;;;;;;0.35;100.00;102799.16;5102884;28;19979;-72
2024/01/20 11:43:11;;;;;;;;;;;;;;;0.31;100.00;102804.16;5102585;28;20196;-71
2024/01/20 11:45:36;;;;;;;;;;;;;;;0.34;100.00;102796.53;5113703;28;19918;-72
2024/01/20 11:48:01;;;;;;;;;;;;;;;0.37;100.00;102796.63;5087146;28;19994;-71
2024/01/20 11:50:27;;;;;;;;;;;;;;;0.39;100.00;102805.28;5101578;28;19919;-71
2024/01/20 11:52:52;;;;;;;;;;;;;;;0.34;100.00;102799.09;5101012;28;19930;-71
2024/01/20 11:55:17;;;;;;;;;;;;;;;0.37;100.00;102794.91;5101073;28;19920;-71
2024/01/20 11:57:43;;;;;;;;;;;;;;;0.44;100.00;102787.38;5103503;28;20115;-72
2024/01/20 12:00:10;;;;;;;;;;;;;;;0.42;100.00;102796.75;5100629;28;20243;-71
2024/01/20 12:02:35;;;;;;;;;;;;;;;0.35;100.00;102795.72;5099951;28;20111;-71
2024/01/20 12:05:01;;;;;;;;;;;;;;;0.37;100.00;102794.06;5103978;28;19987;-71
2024/01/20 12:07:26;;;;;;;;;;;;;;;0.38;100.00;102786.38;5103695;28;19912;-71
2024/01/20 12:09:51;;;;;;;;;;;;;;;0.37;100.00;102771.72;5102405;28;19928;-72
2024/01/20 12:12:17;;;;;;;;;;;;;;;0.33;100.00;102775.03;5096157;28;19923;-71
2024/01/20 12:14:42;;;;;;;;;;;;;;;0.39;100.00;102779.50;5102177;28;20203;-71
2024/01/20 12:17:08;;;;;;;;;;;;;;;0.37;100.00;102774.31;5101521;27;20236;-71
2024/01/20 12:19:35;;;;;;;;;;;;;;;0.37;100.00;102755.38;5102910;28;19916;-71